sensor_id;sensor_type;location;lat;lon;timestamp;temperature;humidity
4556;DHT22;2290;48.674;9.018;2023-04-08T00:00:44;8.00;99.90
4556;DHT22;2290;48.674;9.018;2023-04-08T00:03:09;8.00;99.90
4556;DHT22;2290;48.674;9.018;2023-04-08T00:05:35;8.10;99.90
4556;DHT22;2290;48.674;9.018;2023-04-08T00:08:01;8.10;99.90
4556;DHT22;2290;48.674;9.018;2023-04-08T00:10:26;8.10;99.90
4556;DHT22;2290;48.674;9.018;2023-04-08T00:12:52;8.10;99.90
4556;DHT22;2290;48.674;9.018;2023-04-08T00:15:18;8.20;99.90
4556;DHT22;2290;48.674;9.018;2023-04-08T00:17:44;8.20;99.90
4556;DHT22;2290;48.674;9.018;2023-04-08T00:20:10;8.20;99.90
4556;DHT22;2290;48.674;9.018;2023-04-08T00:22:36;8.20;99.90
4556;DHT22;2290;48.674;9.018;2023-04-08T00:25:03;8.30;99.90
4556;DHT22;2290;48.674;9.018;2023-04-08T00:27:32;8.30;99.90
4556;DHT22;2290;48.674;9.018;2023-04-08T00:29:58;8.30;99.90
4556;DHT22;2290;48.674;9.018;2023-04-08T00:32:25;8.40;99.90
4556;DHT22;2290;48.674;9.018;2023-04-08T00:34:50;8.40;99.90
4556;DHT22;2290;48.674;9.018;2023-04-08T00:37:16;8.40;99.90
4556;DHT22;2290;48.674;9.018;2023-04-08T00:39:42;8.40;99.90
4556;DHT22;2290;48.674;9.018;2023-04-08T00:42:07;8.40;99.90
4556;DHT22;2290;48.674;9.018;2023-04-08T00:44:34;8.30;99.90
4556;DHT22;2290;48.674;9.018;2023-04-08T00:47:00;8.30;99.90
4556;DHT22;2290;48.674;9.018;2023-04-08T00:49:27;8.30;99.90
4556;DHT22;2290;48.674;9.018;2023-04-08T00:51:53;8.30;99.90
4556;DHT22;2290;48.674;9.018;2023-04-08T00:54:19;8.40;99.90
4556;DHT22;2290;48.674;9.018;2023-04-08T00:56:45;8.30;99.90
4556;DHT22;2290;48.674;9.018;2023-04-08T00:59:11;8.30;99.90
4556;DHT22;2290;48.674;9.018;2023-04-08T01:01:42;8.40;99.90
4556;DHT22;2290;48.674;9.018;2023-04-08T01:06:40;8.40;99.90
4556;DHT22;2290;48.674;9.018;2023-04-08T01:09:12;8.30;99.90
4556;DHT22;2290;48.674;9.018;2023-04-08T01:11:42;8.30;99.90
4556;DHT22;2290;48.674;9.018;2023-04-08T01:14:16;8.30;99.90
4556;DHT22;2290;48.674;9.018;2023-04-08T01:16:45;8.20;99.90
4556;DHT22;2290;48.674;9.018;2023-04-08T01:19:20;8.20;99.90
4556;DHT22;2290;48.674;9.018;2023-04-08T01:21:48;8.20;99.90
4556;DHT22;2290;48.674;9.018;2023-04-08T01:24:25;8.20;99.90
4556;DHT22;2290;48.674;9.018;2023-04-08T01:26:55;8.20;99.90
4556;DHT22;2290;48.674;9.018;2023-04-08T01:29:22;8.30;99.90
4556;DHT22;2290;48.674;9.018;2023-04-08T01:31:49;8.30;99.90
4556;DHT22;2290;48.674;9.018;2023-04-08T01:34:18;8.30;99.90
4556;DHT22;2290;48.674;9.018;2023-04-08T01:36:45;8.20;99.90
4556;DHT22;2290;48.674;9.018;2023-04-08T01:39:13;8.20;99.90
4556;DHT22;2290;48.674;9.018;2023-04-08T01:41:42;8.20;99.90
4556;DHT22;2290;48.674;9.018;2023-04-08T01:44:09;8.10;99.90
4556;DHT22;2290;48.674;9.018;2023-04-08T01:46:36;8.10;99.90
4556;DHT22;2290;48.674;9.018;2023-04-08T01:49:03;8.00;99.90
4556;DHT22;2290;48.674;9.018;2023-04-08T01:51:30;8.10;99.90
4556;DHT22;2290;48.674;9.018;2023-04-08T01:53:57;8.10;99.90
4556;DHT22;2290;48.674;9.018;2023-04-08T01:56:26;8.10;99.90
4556;DHT22;2290;48.674;9.018;2023-04-08T01:58:57;8.10;99.90
4556;DHT22;2290;48.674;9.018;2023-04-08T02:01:26;8.20;99.90
4556;DHT22;2290;48.674;9.018;2023-04-08T02:03:55;8.20;99.90
4556;DHT22;2290;48.674;9.018;2023-04-08T02:06:22;8.20;99.90
4556;DHT22;2290;48.674;9.018;2023-04-08T02:08:48;8.20;99.90
4556;DHT22;2290;48.674;9.018;2023-04-08T02:11:13;8.10;99.90
4556;DHT22;2290;48.674;9.018;2023-04-08T02:13:39;8.10;99.90
4556;DHT22;2290;48.674;9.018;2023-04-08T02:18:58;8.10;99.90
4556;DHT22;2290;48.674;9.018;2023-04-08T02:21:36;8.00;99.90
4556;DHT22;2290;48.674;9.018;2023-04-08T02:24:07;8.10;99.90
4556;DHT22;2290;48.674;9.018;2023-04-08T02:26:36;8.00;99.90
4556;DHT22;2290;48.674;9.018;2023-04-08T02:29:04;8.00;99.90
4556;DHT22;2290;48.674;9.018;2023-04-08T02:31:33;8.00;99.90
4556;DHT22;2290;48.674;9.018;2023-04-08T02:33:59;8.00;99.90
4556;DHT22;2290;48.674;9.018;2023-04-08T02:36:25;8.00;99.90
4556;DHT22;2290;48.674;9.018;2023-04-08T02:38:51;8.00;99.90
4556;DHT22;2290;48.674;9.018;2023-04-08T02:41:16;8.00;99.90
4556;DHT22;2290;48.674;9.018;2023-04-08T02:43:42;8.00;99.90
4556;DHT22;2290;48.674;9.018;2023-04-08T02:46:08;8.00;99.90
4556;DHT22;2290;48.674;9.018;2023-04-08T02:48:35;8.00;99.90
4556;DHT22;2290;48.674;9.018;2023-04-08T02:51:01;8.00;99.90
4556;DHT22;2290;48.674;9.018;2023-04-08T02:53:26;8.00;99.90
4556;DHT22;2290;48.674;9.018;2023-04-08T02:55:52;7.90;99.90
4556;DHT22;2290;48.674;9.018;2023-04-08T02:58:19;7.90;99.90
4556;DHT22;2290;48.674;9.018;2023-04-08T03:00:44;7.90;99.90
4556;DHT22;2290;48.674;9.018;2023-04-08T03:03:10;7.80;99.90
4556;DHT22;2290;48.674;9.018;2023-04-08T03:05:36;7.80;99.90
4556;DHT22;2290;48.674;9.018;2023-04-08T03:08:01;7.80;99.90
4556;DHT22;2290;48.674;9.018;2023-04-08T03:10:27;7.80;99.90
4556;DHT22;2290;48.674;9.018;2023-04-08T03:12:53;7.90;99.90
4556;DHT22;2290;48.674;9.018;2023-04-08T03:15:18;7.90;99.90
4556;DHT22;2290;48.674;9.018;2023-04-08T03:17:44;8.00;99.90
4556;DHT22;2290;48.674;9.018;2023-04-08T03:20:11;7.90;99.90
4556;DHT22;2290;48.674;9.018;2023-04-08T03:22:38;7.90;99.90
4556;DHT22;2290;48.674;9.018;2023-04-08T03:25:04;7.90;99.90
4556;DHT22;2290;48.674;9.018;2023-04-08T03:27:29;7.90;99.90
4556;DHT22;2290;48.674;9.018;2023-04-08T03:29:55;7.90;99.90
4556;DHT22;2290;48.674;9.018;2023-04-08T03:32:22;8.00;99.90
4556;DHT22;2290;48.674;9.018;2023-04-08T03:34:47;7.90;99.90
4556;DHT22;2290;48.674;9.018;2023-04-08T03:37:16;7.90;99.90
4556;DHT22;2290;48.674;9.018;2023-04-08T03:39:41;7.80;99.90
4556;DHT22;2290;48.674;9.018;2023-04-08T03:42:07;7.90;99.90
4556;DHT22;2290;48.674;9.018;2023-04-08T03:44:33;7.90;99.90
4556;DHT22;2290;48.674;9.018;2023-04-08T03:46:58;7.90;99.90
4556;DHT22;2290;48.674;9.018;2023-04-08T03:49:24;7.80;99.90
4556;DHT22;2290;48.674;9.018;2023-04-08T03:51:49;7.80;99.90
4556;DHT22;2290;48.674;9.018;2023-04-08T03:54:17;7.80;99.90
4556;DHT22;2290;48.674;9.018;2023-04-08T03:56:42;7.70;99.90
4556;DHT22;2290;48.674;9.018;2023-04-08T03:59:08;7.70;99.90
4556;DHT22;2290;48.674;9.018;2023-04-08T04:01:33;7.70;99.90
4556;DHT22;2290;48.674;9.018;2023-04-08T04:03:59;7.70;99.90
4556;DHT22;2290;48.674;9.018;2023-04-08T04:06:25;7.70;99.90
4556;DHT22;2290;48.674;9.018;2023-04-08T04:08:52;7.70;99.90
4556;DHT22;2290;48.674;9.018;2023-04-08T04:11:19;7.70;99.90
4556;DHT22;2290;48.674;9.018;2023-04-08T04:13:47;7.70;99.90
4556;DHT22;2290;48.674;9.018;2023-04-08T04:16:13;7.60;99.90
4556;DHT22;2290;48.674;9.018;2023-04-08T04:18:39;7.60;99.90
4556;DHT22;2290;48.674;9.018;2023-04-08T04:21:05;7.60;99.90
4556;DHT22;2290;48.674;9.018;2023-04-08T04:23:34;7.70;99.90
4556;DHT22;2290;48.674;9.018;2023-04-08T04:25:59;7.70;99.90
4556;DHT22;2290;48.674;9.018;2023-04-08T04:28:27;7.80;99.90
4556;DHT22;2290;48.674;9.018;2023-04-08T04:30:52;7.90;99.90
4556;DHT22;2290;48.674;9.018;2023-04-08T04:33:19;7.90;99.90
4556;DHT22;2290;48.674;9.018;2023-04-08T04:35:46;7.90;99.90
4556;DHT22;2290;48.674;9.018;2023-04-08T04:38:12;7.90;99.90
4556;DHT22;2290;48.674;9.018;2023-04-08T04:40:39;7.90;99.90
4556;DHT22;2290;48.674;9.018;2023-04-08T04:43:06;7.90;99.90
4556;DHT22;2290;48.674;9.018;2023-04-08T04:45:32;7.90;99.90
4556;DHT22;2290;48.674;9.018;2023-04-08T04:47:57;7.90;99.90
4556;DHT22;2290;48.674;9.018;2023-04-08T04:50:23;7.80;99.90
4556;DHT22;2290;48.674;9.018;2023-04-08T04:52:48;7.70;99.90
4556;DHT22;2290;48.674;9.018;2023-04-08T04:55:14;7.70;99.90
4556;DHT22;2290;48.674;9.018;2023-04-08T04:57:40;7.70;99.90
4556;DHT22;2290;48.674;9.018;2023-04-08T05:00:09;7.70;99.90
4556;DHT22;2290;48.674;9.018;2023-04-08T05:02:34;7.60;99.90
4556;DHT22;2290;48.674;9.018;2023-04-08T05:05:00;7.60;99.90
4556;DHT22;2290;48.674;9.018;2023-04-08T05:07:27;7.60;99.90
4556;DHT22;2290;48.674;9.018;2023-04-08T05:09:54;7.60;99.90
4556;DHT22;2290;48.674;9.018;2023-04-08T05:12:20;7.60;99.90
4556;DHT22;2290;48.674;9.018;2023-04-08T05:14:46;7.70;99.90
4556;DHT22;2290;48.674;9.018;2023-04-08T05:17:12;7.70;99.90
4556;DHT22;2290;48.674;9.018;2023-04-08T05:19:38;7.70;99.90
4556;DHT22;2290;48.674;9.018;2023-04-08T05:22:04;7.70;99.90
4556;DHT22;2290;48.674;9.018;2023-04-08T05:24:30;7.80;99.90
4556;DHT22;2290;48.674;9.018;2023-04-08T05:26:55;7.80;99.90
4556;DHT22;2290;48.674;9.018;2023-04-08T05:29:23;7.80;99.90
4556;DHT22;2290;48.674;9.018;2023-04-08T05:31:48;7.80;99.90
4556;DHT22;2290;48.674;9.018;2023-04-08T05:34:14;7.80;99.90
4556;DHT22;2290;48.674;9.018;2023-04-08T05:36:45;7.80;99.90
4556;DHT22;2290;48.674;9.018;2023-04-08T05:39:11;7.70;99.90
4556;DHT22;2290;48.674;9.018;2023-04-08T05:41:37;7.70;99.90
4556;DHT22;2290;48.674;9.018;2023-04-08T05:44:03;7.70;99.90
4556;DHT22;2290;48.674;9.018;2023-04-08T05:46:30;7.70;99.90
4556;DHT22;2290;48.674;9.018;2023-04-08T05:48:55;7.70;99.90
4556;DHT22;2290;48.674;9.018;2023-04-08T05:51:21;7.80;99.90
4556;DHT22;2290;48.674;9.018;2023-04-08T05:53:46;7.80;99.90
4556;DHT22;2290;48.674;9.018;2023-04-08T05:56:12;7.90;99.90
4556;DHT22;2290;48.674;9.018;2023-04-08T05:58:38;7.80;99.90
4556;DHT22;2290;48.674;9.018;2023-04-08T06:01:03;7.90;99.90
4556;DHT22;2290;48.674;9.018;2023-04-08T06:03:30;8.00;99.90
4556;DHT22;2290;48.674;9.018;2023-04-08T06:05:56;8.00;99.90
4556;DHT22;2290;48.674;9.018;2023-04-08T06:08:21;8.00;99.90
4556;DHT22;2290;48.674;9.018;2023-04-08T06:10:49;8.00;99.90
4556;DHT22;2290;48.674;9.018;2023-04-08T06:13:15;8.10;99.90
4556;DHT22;2290;48.674;9.018;2023-04-08T06:15:42;8.10;99.90
4556;DHT22;2290;48.674;9.018;2023-04-08T06:18:10;8.10;99.90
4556;DHT22;2290;48.674;9.018;2023-04-08T06:20:35;8.10;99.90
4556;DHT22;2290;48.674;9.018;2023-04-08T06:23:02;8.10;99.90
4556;DHT22;2290;48.674;9.018;2023-04-08T06:25:28;8.10;99.90
4556;DHT22;2290;48.674;9.018;2023-04-08T06:27:53;8.10;99.90
4556;DHT22;2290;48.674;9.018;2023-04-08T06:30:19;8.10;99.90
4556;DHT22;2290;48.674;9.018;2023-04-08T06:32:46;8.10;99.90
4556;DHT22;2290;48.674;9.018;2023-04-08T06:35:12;8.20;99.90
4556;DHT22;2290;48.674;9.018;2023-04-08T06:37:37;8.20;99.90
4556;DHT22;2290;48.674;9.018;2023-04-08T06:40:05;8.30;99.90
4556;DHT22;2290;48.674;9.018;2023-04-08T06:42:33;8.30;99.90
4556;DHT22;2290;48.674;9.018;2023-04-08T06:44:58;8.30;99.90
4556;DHT22;2290;48.674;9.018;2023-04-08T06:47:25;8.30;99.90
4556;DHT22;2290;48.674;9.018;2023-04-08T06:49:51;8.30;99.90
4556;DHT22;2290;48.674;9.018;2023-04-08T06:52:16;8.30;99.90
4556;DHT22;2290;48.674;9.018;2023-04-08T06:54:43;8.40;99.90
4556;DHT22;2290;48.674;9.018;2023-04-08T06:57:09;8.40;99.90
4556;DHT22;2290;48.674;9.018;2023-04-08T06:59:34;8.40;99.90
4556;DHT22;2290;48.674;9.018;2023-04-08T07:02:00;8.30;99.90
4556;DHT22;2290;48.674;9.018;2023-04-08T07:04:26;8.40;99.90
4556;DHT22;2290;48.674;9.018;2023-04-08T07:06:51;8.50;99.90
4556;DHT22;2290;48.674;9.018;2023-04-08T07:09:17;8.50;99.90
4556;DHT22;2290;48.674;9.018;2023-04-08T07:11:43;8.50;99.90
4556;DHT22;2290;48.674;9.018;2023-04-08T07:14:09;8.50;99.90
4556;DHT22;2290;48.674;9.018;2023-04-08T07:16:34;8.60;99.90
4556;DHT22;2290;48.674;9.018;2023-04-08T07:19:00;8.60;99.90
4556;DHT22;2290;48.674;9.018;2023-04-08T07:21:26;8.60;99.90
4556;DHT22;2290;48.674;9.018;2023-04-08T07:23:52;8.70;99.90
4556;DHT22;2290;48.674;9.018;2023-04-08T07:26:17;8.70;99.90
4556;DHT22;2290;48.674;9.018;2023-04-08T07:28:43;8.70;99.90
4556;DHT22;2290;48.674;9.018;2023-04-08T07:31:14;8.60;99.90
4556;DHT22;2290;48.674;9.018;2023-04-08T07:33:43;8.60;99.90
4556;DHT22;2290;48.674;9.018;2023-04-08T07:36:09;8.60;99.90
4556;DHT22;2290;48.674;9.018;2023-04-08T07:38:36;8.60;99.90
4556;DHT22;2290;48.674;9.018;2023-04-08T07:41:02;8.60;99.90
4556;DHT22;2290;48.674;9.018;2023-04-08T07:43:31;8.70;99.90
4556;DHT22;2290;48.674;9.018;2023-04-08T07:46:00;8.60;99.90
4556;DHT22;2290;48.674;9.018;2023-04-08T07:48:28;8.60;99.90
4556;DHT22;2290;48.674;9.018;2023-04-08T07:50:55;8.70;99.90
4556;DHT22;2290;48.674;9.018;2023-04-08T07:53:21;8.70;99.90
4556;DHT22;2290;48.674;9.018;2023-04-08T07:55:49;8.70;99.90
4556;DHT22;2290;48.674;9.018;2023-04-08T07:58:15;8.80;99.90
4556;DHT22;2290;48.674;9.018;2023-04-08T08:00:41;8.90;99.90
4556;DHT22;2290;48.674;9.018;2023-04-08T08:03:06;8.90;99.90
4556;DHT22;2290;48.674;9.018;2023-04-08T08:05:32;9.00;99.90
4556;DHT22;2290;48.674;9.018;2023-04-08T08:07:59;9.00;99.90
4556;DHT22;2290;48.674;9.018;2023-04-08T08:10:25;9.00;99.90
4556;DHT22;2290;48.674;9.018;2023-04-08T08:12:51;9.00;99.90
4556;DHT22;2290;48.674;9.018;2023-04-08T08:15:17;9.10;99.90
4556;DHT22;2290;48.674;9.018;2023-04-08T08:17:42;9.20;99.90
4556;DHT22;2290;48.674;9.018;2023-04-08T08:20:09;9.30;99.90
4556;DHT22;2290;48.674;9.018;2023-04-08T08:22:36;9.40;99.90
4556;DHT22;2290;48.674;9.018;2023-04-08T08:25:04;9.50;99.90
4556;DHT22;2290;48.674;9.018;2023-04-08T08:27:30;9.50;99.90
4556;DHT22;2290;48.674;9.018;2023-04-08T08:29:58;9.50;99.90
4556;DHT22;2290;48.674;9.018;2023-04-08T08:32:25;9.50;99.90
4556;DHT22;2290;48.674;9.018;2023-04-08T08:34:50;9.60;99.90
4556;DHT22;2290;48.674;9.018;2023-04-08T08:37:16;9.60;99.90
4556;DHT22;2290;48.674;9.018;2023-04-08T08:39:41;9.60;99.90
4556;DHT22;2290;48.674;9.018;2023-04-08T08:42:20;9.60;99.90
4556;DHT22;2290;48.674;9.018;2023-04-08T08:44:47;9.60;99.90
4556;DHT22;2290;48.674;9.018;2023-04-08T08:47:15;9.70;99.90
4556;DHT22;2290;48.674;9.018;2023-04-08T08:49:41;9.70;99.90
4556;DHT22;2290;48.674;9.018;2023-04-08T08:52:08;9.80;99.90
4556;DHT22;2290;48.674;9.018;2023-04-08T08:54:34;9.90;99.90
4556;DHT22;2290;48.674;9.018;2023-04-08T08:57:01;9.90;99.90
4556;DHT22;2290;48.674;9.018;2023-04-08T08:59:26;10.00;99.90
4556;DHT22;2290;48.674;9.018;2023-04-08T09:01:52;10.10;99.90
4556;DHT22;2290;48.674;9.018;2023-04-08T09:04:19;10.00;99.90
4556;DHT22;2290;48.674;9.018;2023-04-08T09:06:48;10.10;99.90
4556;DHT22;2290;48.674;9.018;2023-04-08T09:09:16;10.10;99.90
4556;DHT22;2290;48.674;9.018;2023-04-08T09:11:43;10.30;99.90
4556;DHT22;2290;48.674;9.018;2023-04-08T09:14:23;10.30;99.90
4556;DHT22;2290;48.674;9.018;2023-04-08T09:16:50;10.10;99.90
4556;DHT22;2290;48.674;9.018;2023-04-08T09:19:16;10.10;99.90
4556;DHT22;2290;48.674;9.018;2023-04-08T09:22:03;10.20;99.90
4556;DHT22;2290;48.674;9.018;2023-04-08T09:24:31;10.20;99.90
4556;DHT22;2290;48.674;9.018;2023-04-08T09:26:58;10.40;99.90
4556;DHT22;2290;48.674;9.018;2023-04-08T09:29:25;10.60;99.90
4556;DHT22;2290;48.674;9.018;2023-04-08T09:31:58;10.90;99.90
4556;DHT22;2290;48.674;9.018;2023-04-08T09:34:25;11.10;99.90
4556;DHT22;2290;48.674;9.018;2023-04-08T09:36:53;11.30;99.90
4556;DHT22;2290;48.674;9.018;2023-04-08T09:39:19;11.50;99.90
4556;DHT22;2290;48.674;9.018;2023-04-08T09:41:50;11.60;99.90
4556;DHT22;2290;48.674;9.018;2023-04-08T09:44:17;11.70;99.90
4556;DHT22;2290;48.674;9.018;2023-04-08T09:49:33;11.70;99.90
4556;DHT22;2290;48.674;9.018;2023-04-08T09:52:14;11.60;99.90
4556;DHT22;2290;48.674;9.018;2023-04-08T09:57:16;11.70;99.90
4556;DHT22;2290;48.674;9.018;2023-04-08T09:59:59;11.90;99.90
4556;DHT22;2290;48.674;9.018;2023-04-08T10:02:29;11.80;99.90
4556;DHT22;2290;48.674;9.018;2023-04-08T10:04:59;11.90;99.90
4556;DHT22;2290;48.674;9.018;2023-04-08T10:07:25;12.00;99.90
4556;DHT22;2290;48.674;9.018;2023-04-08T10:09:51;11.90;99.90
4556;DHT22;2290;48.674;9.018;2023-04-08T10:12:17;11.90;99.90
4556;DHT22;2290;48.674;9.018;2023-04-08T10:17:51;12.10;99.90
4556;DHT22;2290;48.674;9.018;2023-04-08T10:23:10;12.10;99.90
4556;DHT22;2290;48.674;9.018;2023-04-08T10:25:42;12.20;99.90
4556;DHT22;2290;48.674;9.018;2023-04-08T10:30:46;12.20;99.90
4556;DHT22;2290;48.674;9.018;2023-04-08T10:33:20;12.30;99.90
4556;DHT22;2290;48.674;9.018;2023-04-08T10:38:24;12.40;99.90
4556;DHT22;2290;48.674;9.018;2023-04-08T10:40:50;12.40;99.90
4556;DHT22;2290;48.674;9.018;2023-04-08T10:43:16;12.50;99.90
4556;DHT22;2290;48.674;9.018;2023-04-08T10:45:43;12.50;99.90
4556;DHT22;2290;48.674;9.018;2023-04-08T10:48:20;12.70;99.90
4556;DHT22;2290;48.674;9.018;2023-04-08T10:50:57;12.80;99.90
4556;DHT22;2290;48.674;9.018;2023-04-08T10:53:44;12.80;99.90
4556;DHT22;2290;48.674;9.018;2023-04-08T10:58:49;12.60;99.90
4556;DHT22;2290;48.674;9.018;2023-04-08T11:01:15;12.40;99.90
4556;DHT22;2290;48.674;9.018;2023-04-08T11:03:41;12.20;99.90
4556;DHT22;2290;48.674;9.018;2023-04-08T11:06:07;12.10;99.90
4556;DHT22;2290;48.674;9.018;2023-04-08T11:08:34;12.10;99.90
4556;DHT22;2290;48.674;9.018;2023-04-08T11:11:03;12.00;99.90
4556;DHT22;2290;48.674;9.018;2023-04-08T11:13:34;11.80;99.90
4556;DHT22;2290;48.674;9.018;2023-04-08T11:16:01;11.70;99.90
4556;DHT22;2290;48.674;9.018;2023-04-08T11:18:29;11.60;99.90
4556;DHT22;2290;48.674;9.018;2023-04-08T11:20:56;11.60;99.90
4556;DHT22;2290;48.674;9.018;2023-04-08T11:23:24;11.60;99.90
4556;DHT22;2290;48.674;9.018;2023-04-08T11:25:51;11.50;99.90
4556;DHT22;2290;48.674;9.018;2023-04-08T11:28:17;11.50;99.90
4556;DHT22;2290;48.674;9.018;2023-04-08T11:30:43;11.50;99.90
4556;DHT22;2290;48.674;9.018;2023-04-08T11:33:11;11.40;99.90
4556;DHT22;2290;48.674;9.018;2023-04-08T11:35:41;11.40;99.90
4556;DHT22;2290;48.674;9.018;2023-04-08T11:38:10;11.40;99.90
4556;DHT22;2290;48.674;9.018;2023-04-08T11:40:36;11.30;99.90
4556;DHT22;2290;48.674;9.018;2023-04-08T11:43:16;11.10;99.90
4556;DHT22;2290;48.674;9.018;2023-04-08T11:45:42;11.10;99.90
4556;DHT22;2290;48.674;9.018;2023-04-08T11:48:11;11.10;99.90
4556;DHT22;2290;48.674;9.018;2023-04-08T11:50:38;11.00;99.90
4556;DHT22;2290;48.674;9.018;2023-04-08T11:53:25;11.00;99.90
4556;DHT22;2290;48.674;9.018;2023-04-08T11:55:51;11.00;99.90
4556;DHT22;2290;48.674;9.018;2023-04-08T11:58:16;11.00;99.90
4556;DHT22;2290;48.674;9.018;2023-04-08T12:00:43;11.00;99.90
4556;DHT22;2290;48.674;9.018;2023-04-08T12:03:10;11.00;99.90
4556;DHT22;2290;48.674;9.018;2023-04-08T12:05:37;11.10;99.90
4556;DHT22;2290;48.674;9.018;2023-04-08T12:08:03;11.10;99.90
4556;DHT22;2290;48.674;9.018;2023-04-08T12:10:29;11.10;99.90
4556;DHT22;2290;48.674;9.018;2023-04-08T12:12:54;11.10;99.90
4556;DHT22;2290;48.674;9.018;2023-04-08T12:15:20;11.10;99.90
4556;DHT22;2290;48.674;9.018;2023-04-08T12:17:45;11.10;99.90
4556;DHT22;2290;48.674;9.018;2023-04-08T12:20:12;11.10;99.90
4556;DHT22;2290;48.674;9.018;2023-04-08T12:22:38;11.10;99.90
4556;DHT22;2290;48.674;9.018;2023-04-08T12:25:05;11.10;99.90
4556;DHT22;2290;48.674;9.018;2023-04-08T12:27:31;11.00;99.90
4556;DHT22;2290;48.674;9.018;2023-04-08T12:30:01;11.00;99.90
4556;DHT22;2290;48.674;9.018;2023-04-08T12:32:27;11.00;99.90
4556;DHT22;2290;48.674;9.018;2023-04-08T12:34:53;11.00;99.90
4556;DHT22;2290;48.674;9.018;2023-04-08T12:37:18;11.00;99.90
4556;DHT22;2290;48.674;9.018;2023-04-08T12:39:45;10.90;99.90
4556;DHT22;2290;48.674;9.018;2023-04-08T12:42:12;10.90;99.90
4556;DHT22;2290;48.674;9.018;2023-04-08T12:44:38;11.00;99.90
4556;DHT22;2290;48.674;9.018;2023-04-08T12:47:05;11.00;99.90
4556;DHT22;2290;48.674;9.018;2023-04-08T12:49:31;10.90;99.90
4556;DHT22;2290;48.674;9.018;2023-04-08T12:51:58;10.80;99.90
4556;DHT22;2290;48.674;9.018;2023-04-08T12:54:23;10.90;99.90
4556;DHT22;2290;48.674;9.018;2023-04-08T12:56:49;10.90;99.90
4556;DHT22;2290;48.674;9.018;2023-04-08T12:59:15;10.90;99.90
4556;DHT22;2290;48.674;9.018;2023-04-08T13:01:43;10.70;99.90
4556;DHT22;2290;48.674;9.018;2023-04-08T13:04:09;10.60;99.90
4556;DHT22;2290;48.674;9.018;2023-04-08T13:06:35;10.60;99.90
4556;DHT22;2290;48.674;9.018;2023-04-08T13:09:02;10.50;99.90
4556;DHT22;2290;48.674;9.018;2023-04-08T13:11:27;10.50;99.90
4556;DHT22;2290;48.674;9.018;2023-04-08T13:13:54;10.50;99.90
4556;DHT22;2290;48.674;9.018;2023-04-08T13:16:20;10.40;99.90
4556;DHT22;2290;48.674;9.018;2023-04-08T13:18:46;10.50;99.90
4556;DHT22;2290;48.674;9.018;2023-04-08T13:21:11;10.50;99.90
4556;DHT22;2290;48.674;9.018;2023-04-08T13:23:39;10.50;99.90
4556;DHT22;2290;48.674;9.018;2023-04-08T13:26:07;10.60;99.90
4556;DHT22;2290;48.674;9.018;2023-04-08T13:28:33;10.60;99.90
4556;DHT22;2290;48.674;9.018;2023-04-08T13:30:59;10.70;99.90
4556;DHT22;2290;48.674;9.018;2023-04-08T13:33:25;10.70;99.90
4556;DHT22;2290;48.674;9.018;2023-04-08T13:35:51;10.80;99.90
4556;DHT22;2290;48.674;9.018;2023-04-08T13:38:17;10.80;99.90
4556;DHT22;2290;48.674;9.018;2023-04-08T13:40:44;10.90;99.90
4556;DHT22;2290;48.674;9.018;2023-04-08T13:43:09;10.90;99.90
4556;DHT22;2290;48.674;9.018;2023-04-08T13:45:35;10.90;99.90
4556;DHT22;2290;48.674;9.018;2023-04-08T13:48:03;11.00;99.90
4556;DHT22;2290;48.674;9.018;2023-04-08T13:50:29;11.00;99.90
4556;DHT22;2290;48.674;9.018;2023-04-08T13:52:54;11.10;99.90
4556;DHT22;2290;48.674;9.018;2023-04-08T13:55:21;11.10;99.90
4556;DHT22;2290;48.674;9.018;2023-04-08T13:57:47;11.10;99.90
4556;DHT22;2290;48.674;9.018;2023-04-08T14:00:14;11.20;99.90
4556;DHT22;2290;48.674;9.018;2023-04-08T14:02:39;11.20;99.90
4556;DHT22;2290;48.674;9.018;2023-04-08T14:05:07;11.10;99.90
4556;DHT22;2290;48.674;9.018;2023-04-08T14:07:32;11.10;99.90
4556;DHT22;2290;48.674;9.018;2023-04-08T14:09:58;11.10;99.90
4556;DHT22;2290;48.674;9.018;2023-04-08T14:12:24;11.20;99.90
4556;DHT22;2290;48.674;9.018;2023-04-08T14:14:49;11.30;99.90
4556;DHT22;2290;48.674;9.018;2023-04-08T14:17:16;11.20;99.90
4556;DHT22;2290;48.674;9.018;2023-04-08T14:19:42;11.10;99.90
4556;DHT22;2290;48.674;9.018;2023-04-08T14:22:08;11.00;99.90
4556;DHT22;2290;48.674;9.018;2023-04-08T14:24:35;11.10;99.90
4556;DHT22;2290;48.674;9.018;2023-04-08T14:27:01;11.10;99.90
4556;DHT22;2290;48.674;9.018;2023-04-08T14:29:27;11.10;99.90
4556;DHT22;2290;48.674;9.018;2023-04-08T14:31:53;11.10;99.90
4556;DHT22;2290;48.674;9.018;2023-04-08T14:34:18;11.20;99.90
4556;DHT22;2290;48.674;9.018;2023-04-08T14:36:44;11.20;99.90
4556;DHT22;2290;48.674;9.018;2023-04-08T14:39:10;11.20;99.90
4556;DHT22;2290;48.674;9.018;2023-04-08T14:41:36;11.20;99.90
4556;DHT22;2290;48.674;9.018;2023-04-08T14:44:02;11.30;99.90
4556;DHT22;2290;48.674;9.018;2023-04-08T14:46:28;11.30;99.90
4556;DHT22;2290;48.674;9.018;2023-04-08T14:48:54;11.30;99.90
4556;DHT22;2290;48.674;9.018;2023-04-08T14:51:20;11.30;99.90
4556;DHT22;2290;48.674;9.018;2023-04-08T14:53:45;11.20;99.90
4556;DHT22;2290;48.674;9.018;2023-04-08T14:56:11;11.20;99.90
4556;DHT22;2290;48.674;9.018;2023-04-08T14:58:37;11.20;99.90
4556;DHT22;2290;48.674;9.018;2023-04-08T15:01:02;11.20;99.90
4556;DHT22;2290;48.674;9.018;2023-04-08T15:03:28;11.10;99.90
4556;DHT22;2290;48.674;9.018;2023-04-08T15:05:54;11.10;99.90
4556;DHT22;2290;48.674;9.018;2023-04-08T15:08:20;11.10;99.90
4556;DHT22;2290;48.674;9.018;2023-04-08T15:10:47;11.20;99.90
4556;DHT22;2290;48.674;9.018;2023-04-08T15:13:14;11.30;99.90
4556;DHT22;2290;48.674;9.018;2023-04-08T15:15:39;11.50;99.90
4556;DHT22;2290;48.674;9.018;2023-04-08T15:18:06;11.60;99.90
4556;DHT22;2290;48.674;9.018;2023-04-08T15:20:33;11.80;99.90
4556;DHT22;2290;48.674;9.018;2023-04-08T15:23:00;11.80;99.90
4556;DHT22;2290;48.674;9.018;2023-04-08T15:25:26;11.80;99.90
4556;DHT22;2290;48.674;9.018;2023-04-08T15:27:51;11.80;99.90
4556;DHT22;2290;48.674;9.018;2023-04-08T15:30:19;11.70;99.90
4556;DHT22;2290;48.674;9.018;2023-04-08T15:32:50;11.60;99.90
4556;DHT22;2290;48.674;9.018;2023-04-08T15:35:16;11.40;99.90
4556;DHT22;2290;48.674;9.018;2023-04-08T15:37:42;11.40;99.90
4556;DHT22;2290;48.674;9.018;2023-04-08T15:40:08;11.30;99.90
4556;DHT22;2290;48.674;9.018;2023-04-08T15:42:35;11.10;99.90
4556;DHT22;2290;48.674;9.018;2023-04-08T15:45:02;11.00;99.90
4556;DHT22;2290;48.674;9.018;2023-04-08T15:47:28;11.00;99.90
4556;DHT22;2290;48.674;9.018;2023-04-08T15:49:54;10.90;99.90
4556;DHT22;2290;48.674;9.018;2023-04-08T15:52:20;11.00;99.90
4556;DHT22;2290;48.674;9.018;2023-04-08T15:54:46;10.80;99.90
4556;DHT22;2290;48.674;9.018;2023-04-08T15:57:11;10.80;99.90
4556;DHT22;2290;48.674;9.018;2023-04-08T15:59:38;10.80;99.90
4556;DHT22;2290;48.674;9.018;2023-04-08T16:02:04;10.80;99.90
4556;DHT22;2290;48.674;9.018;2023-04-08T16:04:30;10.80;99.90
4556;DHT22;2290;48.674;9.018;2023-04-08T16:06:56;10.70;99.90
4556;DHT22;2290;48.674;9.018;2023-04-08T16:09:25;10.60;99.90
4556;DHT22;2290;48.674;9.018;2023-04-08T16:11:52;10.60;99.90
4556;DHT22;2290;48.674;9.018;2023-04-08T16:14:18;10.60;99.90
4556;DHT22;2290;48.674;9.018;2023-04-08T16:16:44;10.60;99.90
4556;DHT22;2290;48.674;9.018;2023-04-08T16:19:09;10.50;99.90
4556;DHT22;2290;48.674;9.018;2023-04-08T16:21:35;10.50;99.90
4556;DHT22;2290;48.674;9.018;2023-04-08T16:24:01;10.50;99.90
4556;DHT22;2290;48.674;9.018;2023-04-08T16:26:27;10.60;99.90
4556;DHT22;2290;48.674;9.018;2023-04-08T16:28:53;10.60;99.90
4556;DHT22;2290;48.674;9.018;2023-04-08T16:31:19;10.60;99.90